Terminal Aerodrome Forecast
Issued by NWS

Home | Current Version | Previous Version | Graphics & Text | Print | Product List | Glossary On
Versions: 1 2 3 4 5 6 7 8 9 10 11 12 13 14 15 16 17 18 19
000
FTUS43 KGRB 302000 AAA
TAFCWA
TAF AMD
KCWA 302059Z 3021/3118 28008KT P6SM SCT035 OVC060
     FM302300 29008KT P6SM SCT025 BKN045
      TEMPO 3023/3101 -SHRA BKN025
     FM310100 31013G21KT P6SM BKN025 OVC050
      TEMPO 3103/3107 6SM -SHSN
     FM310900 33015G27KT P6SM BKN025 OVC050
     FM311400 35018G28KT P6SM BKN040=

USA.gov is the U.S. government's official web portal to all federal, state and local government web resources and services.